Terminal Aerodrome Forecast
Issued by NWS

Home | Current Version | Previous Version | Text Only | Print | Product List | Glossary On
Versions: 1 2 3 4 5 6 7 8 9 10 11 12 13 14 15 16 17 18 19 20 21 22 23 24 25 26 27 28 29
000
FTUS42 KCAE 302330
TAFCUB
TAF
KCUB 302330Z 0100/0124 18008KT P6SM SCT060 OVC200
     FM010400 14006KT P6SM BKN012 OVC200
     FM010600 13006KT P6SM OVC007
     FM011500 18008KT P6SM BKN025
     FM011800 20010G18KT P6SM VCSH SCT030 BKN050=

USA.gov is the U.S. government's official web portal to all federal, state and local government web resources and services.